Time;durP1;ratioP1;P1;durP2;ratioP2;P2;SDS_P1;SDS_P2;PMS_P1;PMS_P2;Temp;Humidity;BMP_temperature;BMP_pressure;BME280_temperature;BME280_humidity;BME280_pressure;Samples;Min_cycle;Max_cycle;Signal;HPM_P1;HPM_P2
2022/04/19 00:01:50;;;;;;;0.98;0.35;;;7.40;63.50;;;;;;5120223;27;20186;-83
2022/04/19 00:04:19;;;;;;;0.30;0.20;;;7.30;62.40;;;;;;5112666;27;20194;-83
2022/04/19 00:06:47;;;;;;;0.30;0.20;;;7.40;62.70;;;;;;5115894;28;20199;-83
2022/04/19 00:09:17;;;;;;;0.30;0.20;;;7.30;61.70;;;;;;5128779;27;20713;-83
2022/04/19 00:11:45;;;;;;;0.55;0.55;;;7.40;61.50;;;;;;5127032;27;20205;-83
2022/04/19 00:14:13;;;;;;;0.30;0.20;;;7.30;61.30;;;;;;5116185;27;20685;-83
2022/04/19 00:16:41;;;;;;;0.40;0.40;;;7.20;64.20;;;;;;5108356;28;20198;-83
2022/04/19 00:19:08;;;;;;;0.30;0.20;;;7.00;64.60;;;;;;5113870;27;20203;-83
2022/04/19 00:21:35;;;;;;;0.30;0.20;;;7.00;65.40;;;;;;5111344;27;20202;-82
2022/04/19 00:24:06;;;;;;;0.40;0.25;;;6.90;65.70;;;;;;5118745;28;20568;-82
2022/04/19 00:26:33;;;;;;;0.30;0.20;;;6.90;66.00;;;;;;5117368;27;20227;-82
2022/04/19 00:29:02;;;;;;;0.30;0.25;;;6.90;66.00;;;;;;5132842;27;20215;-82
2022/04/19 00:31:30;;;;;;;0.30;0.25;;;7.00;63.80;;;;;;5130410;27;20186;-83
2022/04/19 00:33:58;;;;;;;0.50;0.50;;;7.00;62.80;;;;;;5132889;27;20199;-82
2022/04/19 00:36:26;;;;;;;0.30;0.20;;;7.20;62.60;;;;;;5116951;27;20202;-82
2022/04/19 00:38:53;;;;;;;0.30;0.20;;;7.10;62.10;;;;;;5113124;27;20683;-82
2022/04/19 00:41:22;;;;;;;0.30;0.20;;;7.10;61.70;;;;;;5116371;27;20577;-83
2022/04/19 00:43:49;;;;;;;0.30;0.20;;;7.10;61.60;;;;;;5117900;27;20661;-83
2022/04/19 00:46:16;;;;;;;0.30;0.20;;;7.00;63.30;;;;;;5118678;27;20229;-83
2022/04/19 00:48:43;;;;;;;0.30;0.20;;;6.90;63.70;;;;;;5127751;27;20230;-83
2022/04/19 00:51:10;;;;;;;0.40;0.30;;;6.80;64.70;;;;;;5117220;27;20197;-83
2022/04/19 00:53:37;;;;;;;0.30;0.20;;;6.60;65.10;;;;;;5111973;28;20227;-82
2022/04/19 00:56:05;;;;;;;0.47;0.47;;;6.60;65.30;;;;;;5121144;27;20198;-83
2022/04/19 00:58:34;;;;;;;0.40;0.30;;;6.60;66.20;;;;;;5129756;27;20201;-83
2022/04/19 01:01:02;;;;;;;0.30;0.30;;;6.50;66.20;;;;;;5121724;27;20200;-83
2022/04/19 01:03:29;;;;;;;0.30;0.20;;;6.60;65.70;;;;;;5111898;27;20190;-82
2022/04/19 01:05:55;;;;;;;0.30;0.20;;;6.60;66.80;;;;;;5113743;27;20198;-83
2022/04/19 01:08:24;;;;;;;0.30;0.22;;;6.60;66.80;;;;;;5114420;27;20209;-83
2022/04/19 01:13:17;;;;;;;0.30;0.20;;;6.60;66.50;;;;;;5130305;27;20279;-84
2022/04/19 01:13:40;;;;;;;0.30;0.30;;;6.70;64.70;;;;;;5120542;27;20249;-83
2022/04/19 01:16:10;;;;;;;0.30;0.20;;;6.60;63.90;;;;;;5127264;27;20192;-83
2022/04/19 01:18:37;;;;;;;1.63;0.50;;;6.70;63.80;;;;;;5126091;27;20545;-82
2022/04/19 01:21:06;;;;;;;0.40;0.38;;;6.60;63.70;;;;;;5120433;27;20700;-83
2022/04/19 01:23:35;;;;;;;0.30;0.20;;;6.70;63.40;;;;;;5118814;27;20193;-83
2022/04/19 01:26:02;;;;;;;0.30;0.20;;;6.60;64.20;;;;;;5128014;27;20200;-83
2022/04/19 01:28:30;;;;;;;0.30;0.20;;;6.60;65.10;;;;;;5122043;27;20228;-83
2022/04/19 01:30:57;;;;;;;0.35;0.32;;;6.50;65.50;;;;;;5129147;27;20205;-83
2022/04/19 01:33:25;;;;;;;0.30;0.30;;;6.50;66.10;;;;;;5111711;28;20205;-83
2022/04/19 01:35:53;;;;;;;0.30;0.20;;;6.50;65.30;;;;;;5116192;27;20189;-83
2022/04/19 01:38:20;;;;;;;0.40;0.40;;;6.50;66.50;;;;;;5126993;27;20580;-83
2022/04/19 01:40:48;;;;;;;0.47;0.40;;;6.40;66.90;;;;;;5123914;27;20187;-82
2022/04/19 01:43:16;;;;;;;0.30;0.20;;;6.30;67.60;;;;;;5121998;27;20208;-83
2022/04/19 01:45:43;;;;;;;0.32;0.32;;;6.20;68.00;;;;;;5126387;27;20197;-83
2022/04/19 01:48:10;;;;;;;0.30;0.20;;;6.20;68.60;;;;;;5115620;27;20271;-82
2022/04/19 01:50:38;;;;;;;0.30;0.20;;;6.10;68.60;;;;;;5111084;27;20518;-83
2022/04/19 01:53:05;;;;;;;0.60;0.45;;;6.10;69.00;;;;;;5114733;27;20706;-83
2022/04/19 01:55:32;;;;;;;0.30;0.30;;;6.10;69.00;;;;;;5110149;27;20221;-83
2022/04/19 01:58:01;;;;;;;0.40;0.30;;;6.10;68.90;;;;;;5109955;28;20259;-82
2022/04/19 02:00:30;;;;;;;0.95;0.60;;;6.20;67.30;;;;;;5117044;27;20251;-83
2022/04/19 02:02:57;;;;;;;0.68;0.68;;;6.20;67.40;;;;;;5126174;27;20205;-82
2022/04/19 02:05:25;;;;;;;0.30;0.20;;;6.60;69.30;;;;;;5109971;28;20202;-83
2022/04/19 02:07:52;;;;;;;0.30;0.20;;;6.10;67.70;;;;;;5111989;27;20281;-84
2022/04/19 02:10:20;;;;;;;0.70;0.70;;;6.10;69.00;;;;;;5110623;28;20229;-83
2022/04/19 02:12:47;;;;;;;0.30;0.20;;;6.00;67.80;;;;;;5126389;27;20277;-83
2022/04/19 02:15:15;;;;;;;0.30;0.20;;;6.00;68.40;;;;;;5111316;27;20349;-83
2022/04/19 02:17:46;;;;;;;0.30;0.20;;;6.00;68.20;;;;;;5125502;27;20213;-83
2022/04/19 02:20:14;;;;;;;0.40;0.40;;;5.90;69.20;;;;;;5131025;27;20212;-82
2022/04/19 02:22:42;;;;;;;0.30;0.20;;;5.90;69.10;;;;;;5113714;27;20595;-82
2022/04/19 02:25:11;;;;;;;0.30;0.28;;;5.90;67.50;;;;;;5117755;27;20592;-83
2022/04/19 02:27:40;;;;;;;0.30;0.20;;;5.90;67.40;;;;;;5116835;27;20259;-83
2022/04/19 02:30:13;;;;;;;0.40;0.40;;;5.90;71.60;;;;;;5110673;27;20221;-82
2022/04/19 02:32:41;;;;;;;0.30;0.20;;;5.70;70.40;;;;;;5126969;27;20593;-83
2022/04/19 02:35:09;;;;;;;0.50;0.50;;;5.80;70.90;;;;;;5129932;27;20220;-83
2022/04/19 02:37:36;;;;;;;0.30;0.20;;;5.80;69.00;;;;;;5119033;27;20316;-83
2022/04/19 02:40:04;;;;;;;0.30;0.30;;;5.80;68.40;;;;;;5126410;27;20586;-83
2022/04/19 02:42:31;;;;;;;0.30;0.20;;;5.70;67.40;;;;;;5109806;28;20276;-83
2022/04/19 02:44:58;;;;;;;0.30;0.20;;;5.60;67.90;;;;;;5116765;27;20213;-83
2022/04/19 02:47:25;;;;;;;0.30;0.20;;;5.60;68.80;;;;;;5128828;27;20211;-83
2022/04/19 02:49:53;;;;;;;0.98;0.40;;;5.60;69.40;;;;;;5108404;28;20286;-83
2022/04/19 02:52:20;;;;;;;0.40;0.38;;;5.50;68.40;;;;;;5110032;27;20741;-83
2022/04/19 02:54:46;;;;;;;0.30;0.20;;;5.50;68.50;;;;;;5118909;27;20202;-83
2022/04/19 02:57:13;;;;;;;0.55;0.52;;;5.60;68.10;;;;;;5111033;27;20186;-83
2022/04/19 02:59:42;;;;;;;0.30;0.20;;;5.50;69.30;;;;;;5129952;27;20292;-83
2022/04/19 03:02:09;;;;;;;0.30;0.20;;;5.50;68.50;;;;;;5117646;27;20205;-82
2022/04/19 03:04:37;;;;;;;0.77;0.60;;;5.50;68.70;;;;;;5128604;27;20241;-82
2022/04/19 03:07:06;;;;;;;0.30;0.30;;;5.60;68.00;;;;;;5121397;27;20202;-83
2022/04/19 03:09:33;;;;;;;0.30;0.30;;;5.50;67.90;;;;;;5110096;27;20263;-82
2022/04/19 03:12:01;;;;;;;0.40;0.30;;;5.40;70.60;;;;;;5111472;27;20201;-83
2022/04/19 03:14:28;;;;;;;0.30;0.20;;;5.40;71.40;;;;;;5128188;27;20198;-83
2022/04/19 03:16:55;;;;;;;0.30;0.20;;;5.30;72.40;;;;;;5110997;27;20198;-83
2022/04/19 03:19:23;;;;;;;0.30;0.20;;;5.20;72.80;;;;;;5127311;27;20278;-83
2022/04/19 03:21:50;;;;;;;0.50;0.50;;;5.20;72.80;;;;;;5119558;27;20284;-83
2022/04/19 03:29:47;;;;;;;0.45;0.40;;;5.30;70.50;;;;;;5096050;27;20216;-83
2022/04/19 03:32:15;;;;;;;0.30;0.25;;;5.30;71.30;;;;;;5122695;27;20233;-83
2022/04/19 03:34:42;;;;;;;0.50;0.50;;;5.20;72.30;;;;;;5120396;27;20193;-83
2022/04/19 03:37:10;;;;;;;0.30;0.28;;;5.20;71.80;;;;;;5128829;27;20193;-82
2022/04/19 03:39:38;;;;;;;0.45;0.35;;;5.20;70.70;;;;;;5126555;27;20224;-82
2022/04/19 03:42:08;;;;;;;0.30;0.20;;;5.20;69.90;;;;;;5120217;27;20208;-82
2022/04/19 03:44:35;;;;;;;0.35;0.28;;;5.20;69.60;;;;;;5109168;28;20213;-83
2022/04/19 03:47:09;;;;;;;0.57;0.50;;;5.30;69.60;;;;;;5118923;27;20216;-82
2022/04/19 03:49:36;;;;;;;0.30;0.20;;;5.30;75.60;;;;;;5111939;27;20206;-83
2022/04/19 03:52:03;;;;;;;0.43;0.32;;;5.70;78.20;;;;;;5110556;27;21014;-83
2022/04/19 03:54:31;;;;;;;0.30;0.20;;;5.10;72.90;;;;;;5110201;28;20578;-83
2022/04/19 03:56:59;;;;;;;0.75;0.75;;;5.00;71.80;;;;;;5115447;27;20557;-83
2022/04/19 03:59:26;;;;;;;0.30;0.20;;;5.10;70.80;;;;;;5109542;28;20214;-82
2022/04/19 04:01:53;;;;;;;0.30;0.20;;;5.10;70.90;;;;;;5116265;27;20224;-83
2022/04/19 04:04:21;;;;;;;0.30;0.20;;;5.00;71.20;;;;;;5110753;27;20194;-83
2022/04/19 04:06:48;;;;;;;1.65;1.55;;;5.00;72.60;;;;;;5113143;28;20197;-83
2022/04/19 04:09:15;;;;;;;0.88;0.88;;;5.00;72.90;;;;;;5127027;27;20648;-82
2022/04/19 04:11:42;;;;;;;0.30;0.20;;;5.00;73.60;;;;;;5121281;27;20289;-82
2022/04/19 04:14:10;;;;;;;0.30;0.30;;;5.00;73.90;;;;;;5115740;28;20224;-82
2022/04/19 04:16:37;;;;;;;0.30;0.30;;;5.00;72.80;;;;;;5109286;27;20798;-83
2022/04/19 04:19:04;;;;;;;0.30;0.20;;;5.00;72.20;;;;;;5123366;28;20707;-82
2022/04/19 04:21:30;;;;;;;1.75;1.65;;;5.00;74.20;;;;;;5122663;27;20209;-82
2022/04/19 04:23:57;;;;;;;0.40;0.35;;;4.90;73.70;;;;;;5109964;28;20581;-83
2022/04/19 04:26:24;;;;;;;0.50;0.50;;;4.90;72.80;;;;;;5127955;27;20706;-82
2022/04/19 04:28:51;;;;;;;0.30;0.20;;;4.90;72.10;;;;;;5114288;27;20274;-83
2022/04/19 04:31:19;;;;;;;0.30;0.20;;;4.90;73.70;;;;;;5112824;28;20253;-83
2022/04/19 04:33:46;;;;;;;0.30;0.20;;;4.80;74.20;;;;;;5128931;27;20722;-83
2022/04/19 04:36:13;;;;;;;0.40;0.40;;;4.70;74.90;;;;;;5124333;27;20194;-82
2022/04/19 04:38:40;;;;;;;0.30;0.20;;;4.70;75.50;;;;;;5127320;28;20197;-83
2022/04/19 04:41:07;;;;;;;0.30;0.20;;;4.70;81.60;;;;;;5128653;27;20251;-83
2022/04/19 04:43:34;;;;;;;0.30;0.20;;;4.70;76.30;;;;;;5137923;27;20281;-83
2022/04/19 04:51:31;;;;;;;0.30;0.20;;;4.80;76.50;;;;;;5129771;28;20263;-82
2022/04/19 04:53:57;;;;;;;0.30;0.22;;;4.90;74.80;;;;;;5118604;27;20194;-83
2022/04/19 04:56:24;;;;;;;1.95;0.90;;;4.90;76.30;;;;;;5123698;27;20251;-83
2022/04/19 04:58:51;;;;;;;0.30;0.30;;;4.90;76.60;;;;;;5121853;28;20202;-83
2022/04/19 05:01:18;;;;;;;0.77;0.73;;;4.90;77.10;;;;;;5123038;28;20189;-83
2022/04/19 05:03:47;;;;;;;0.70;0.45;;;4.90;77.10;;;;;;5118500;28;20195;-82
2022/04/19 05:06:14;;;;;;;0.30;0.20;;;5.00;78.10;;;;;;5116710;28;20222;-83
2022/04/19 05:08:40;;;;;;;0.30;0.30;;;5.00;77.90;;;;;;5092262;28;20245;-83
2022/04/19 05:11:07;;;;;;;0.30;0.20;;;5.00;77.80;;;;;;5107883;28;20235;-83
2022/04/19 05:13:34;;;;;;;0.30;0.20;;;5.00;78.40;;;;;;5125144;27;20244;-83
2022/04/19 05:16:01;;;;;;;0.30;0.30;;;5.20;82.20;;;;;;5119262;27;20233;-83
2022/04/19 05:18:28;;;;;;;0.30;0.20;;;5.10;79.00;;;;;;5117055;28;20197;-83
2022/04/19 05:20:56;;;;;;;0.30;0.20;;;5.10;78.90;;;;;;5117704;27;20277;-82
2022/04/19 05:23:23;;;;;;;0.30;0.30;;;4.80;79.10;;;;;;5135742;27;20264;-83
2022/04/19 05:25:50;;;;;;;0.30;0.20;;;5.20;78.60;;;;;;5128339;27;20251;-83
2022/04/19 05:28:17;;;;;;;0.30;0.22;;;5.20;78.60;;;;;;5115544;27;20285;-83
2022/04/19 05:30:44;;;;;;;0.30;0.30;;;5.30;77.30;;;;;;5127132;27;20222;-83
2022/04/19 05:33:11;;;;;;;0.30;0.20;;;5.50;75.50;;;;;;5124967;27;20197;-83
2022/04/19 05:35:39;;;;;;;0.40;0.30;;;5.50;76.40;;;;;;5133785;27;20201;-82
2022/04/19 05:38:07;;;;;;;0.30;0.20;;;5.50;77.70;;;;;;5115824;28;20182;-83
2022/04/19 05:40:34;;;;;;;0.30;0.30;;;5.70;74.40;;;;;;5115855;27;20216;-83
2022/04/19 05:43:01;;;;;;;0.30;0.20;;;5.90;73.00;;;;;;5135328;27;20246;-83
2022/04/19 05:45:28;;;;;;;0.50;0.50;;;6.10;72.80;;;;;;5129495;27;20662;-83
2022/04/19 05:47:55;;;;;;;0.30;0.20;;;6.10;76.40;;;;;;5133794;27;20189;-83
2022/04/19 05:50:22;;;;;;;0.30;0.20;;;6.30;74.70;;;;;;5113221;28;20524;-83
2022/04/19 05:52:49;;;;;;;0.38;0.32;;;6.60;73.10;;;;;;5112866;27;20462;-83
2022/04/19 05:55:17;;;;;;;0.30;0.30;;;6.60;71.80;;;;;;5105636;27;20297;-83
2022/04/19 05:57:44;;;;;;;0.30;0.20;;;6.90;74.70;;;;;;5117116;27;20190;-83
2022/04/19 06:00:12;;;;;;;0.30;0.30;;;6.90;70.60;;;;;;5122108;27;20217;-83
2022/04/19 06:05:23;;;;;;;0.47;0.47;;;7.00;71.00;;;;;;5105633;28;20194;-83
2022/04/19 06:07:52;;;;;;;0.30;0.20;;;7.20;69.30;;;;;;5115112;28;20190;-83
2022/04/19 06:10:22;;;;;;;0.30;0.20;;;7.20;68.50;;;;;;5115276;27;20217;-83
2022/04/19 06:12:48;;;;;;;0.57;0.43;;;7.30;67.70;;;;;;5127909;27;20756;-83
2022/04/19 06:15:15;;;;;;;0.30;0.20;;;7.60;78.30;;;;;;5127588;27;20217;-82
2022/04/19 06:17:42;;;;;;;0.55;0.55;;;7.40;66.50;;;;;;5119734;27;20198;-82
2022/04/19 06:20:10;;;;;;;0.40;0.40;;;7.60;66.10;;;;;;5134943;27;20290;-83
2022/04/19 06:22:37;;;;;;;0.63;0.40;;;7.70;65.90;;;;;;5116164;27;20292;-83
2022/04/19 06:25:06;;;;;;;0.68;0.68;;;7.80;65.70;;;;;;5122192;27;20530;-83
2022/04/19 06:27:34;;;;;;;0.30;0.20;;;7.80;65.50;;;;;;5119304;27;20621;-83
2022/04/19 06:30:02;;;;;;;0.52;0.35;;;8.10;78.50;;;;;;5126788;27;20195;-83
2022/04/19 06:32:29;;;;;;;0.30;0.28;;;8.00;65.90;;;;;;5125002;27;20201;-83
2022/04/19 06:34:56;;;;;;;0.30;0.20;;;8.10;65.70;;;;;;5112172;27;20479;-83
2022/04/19 06:37:23;;;;;;;0.40;0.35;;;8.20;65.00;;;;;;5126798;27;20200;-82
2022/04/19 06:39:50;;;;;;;0.40;0.35;;;8.40;65.40;;;;;;5129632;27;20215;-83
2022/04/19 06:42:17;;;;;;;0.60;0.60;;;;;;;;;;5111636;28;20607;-82
2022/04/19 06:44:46;;;;;;;0.30;0.20;;;8.70;63.80;;;;;;5111919;27;20257;-82
2022/04/19 06:47:12;;;;;;;0.43;0.40;;;8.80;64.10;;;;;;5125797;27;20193;-82
2022/04/19 06:49:40;;;;;;;0.30;0.20;;;8.80;63.90;;;;;;5111448;27;20271;-82
2022/04/19 06:52:08;;;;;;;2.70;0.50;;;8.90;64.60;;;;;;5112105;27;20226;-82
2022/04/19 06:54:35;;;;;;;0.40;0.30;;;8.90;62.00;;;;;;5112328;27;20205;-83
2022/04/19 06:57:01;;;;;;;0.30;0.20;;;8.90;59.90;;;;;;5109628;27;20196;-82
2022/04/19 06:59:29;;;;;;;0.63;0.63;;;9.00;61.60;;;;;;5111948;27;20384;-82
2022/04/19 07:01:57;;;;;;;0.95;0.50;;;9.20;61.00;;;;;;5114348;27;20258;-83
2022/04/19 07:04:24;;;;;;;0.90;0.68;;;9.20;61.10;;;;;;5124642;27;20205;-83
2022/04/19 07:06:51;;;;;;;0.30;0.30;;;9.30;60.40;;;;;;5126360;27;20228;-82
2022/04/19 07:09:18;;;;;;;0.40;0.30;;;9.30;60.20;;;;;;5126702;27;20201;-83
2022/04/19 07:11:45;;;;;;;0.30;0.20;;;9.30;60.30;;;;;;5121046;27;20275;-82
2022/04/19 07:14:12;;;;;;;0.40;0.30;;;9.40;60.50;;;;;;5109941;28;20205;-83
2022/04/19 07:16:39;;;;;;;0.50;0.50;;;9.40;60.20;;;;;;5117307;27;20234;-83
2022/04/19 07:19:07;;;;;;;0.40;0.20;;;9.50;60.80;;;;;;5125770;27;20276;-82
2022/04/19 07:27:08;;;;;;;1.45;0.85;;;9.90;60.10;;;;;;5115084;27;20284;-83
2022/04/19 07:29:36;;;;;;;1.40;1.00;;;10.10;59.30;;;;;;5111579;28;20217;-82
2022/04/19 07:32:03;;;;;;;0.40;0.30;;;10.20;59.00;;;;;;5112868;28;20281;-84
2022/04/19 07:34:31;;;;;;;0.93;0.82;;;10.80;59.20;;;;;;5118235;27;20193;-82
2022/04/19 07:36:58;;;;;;;0.38;0.25;;;10.60;59.00;;;;;;5114655;27;20202;-83
2022/04/19 07:39:25;;;;;;;0.40;0.35;;;10.80;58.30;;;;;;5109584;28;20225;-83
2022/04/19 07:41:54;;;;;;;0.60;0.40;;;10.80;58.30;;;;;;5114088;27;20691;-83
2022/04/19 07:44:20;;;;;;;0.30;0.20;;;10.90;58.40;;;;;;5110411;28;20612;-82
2022/04/19 07:46:47;;;;;;;0.30;0.30;;;11.10;58.30;;;;;;5109441;28;20634;-82
2022/04/19 07:49:14;;;;;;;0.70;0.63;;;11.30;58.40;;;;;;5111323;28;20649;-83
2022/04/19 07:51:43;;;;;;;0.30;0.20;;;11.30;57.60;;;;;;5117462;27;20672;-82
2022/04/19 07:54:10;;;;;;;0.30;0.30;;;11.50;57.50;;;;;;5110178;28;20614;-82
2022/04/19 07:56:37;;;;;;;0.73;0.73;;;11.50;57.30;;;;;;5126929;27;20944;-82
2022/04/19 07:59:04;;;;;;;1.23;0.70;;;11.50;56.60;;;;;;5113542;27;20688;-82
2022/04/19 08:01:30;;;;;;;0.47;0.33;;;11.60;57.20;;;;;;5119205;27;20686;-82
2022/04/19 08:03:57;;;;;;;1.10;0.43;;;11.90;56.90;;;;;;5127660;27;20611;-82
2022/04/19 08:06:24;;;;;;;1.00;0.80;;;12.10;54.00;;;;;;5109525;28;20624;-83
2022/04/19 08:08:53;;;;;;;0.50;0.50;;;12.10;53.20;;;;;;5112044;28;20639;-83
2022/04/19 08:11:20;;;;;;;0.43;0.40;;;12.10;53.70;;;;;;5110857;28;20624;-82
2022/04/19 08:13:46;;;;;;;3.17;1.83;;;12.00;53.10;;;;;;5120111;28;21442;-82
2022/04/19 08:16:13;;;;;;;0.80;0.80;;;12.00;53.30;;;;;;5129144;27;20733;-82
2022/04/19 08:18:41;;;;;;;1.63;1.13;;;12.10;52.70;;;;;;5112518;27;20658;-83
2022/04/19 08:21:08;;;;;;;0.40;0.30;;;12.20;53.00;;;;;;5116392;28;20651;-82
2022/04/19 08:23:35;;;;;;;0.47;0.27;;;12.30;53.10;;;;;;5130048;27;20683;-82
2022/04/19 08:26:04;;;;;;;0.40;0.40;;;12.50;53.10;;;;;;5121737;27;20623;-82
2022/04/19 08:28:30;;;;;;;0.47;0.30;;;12.80;52.80;;;;;;5109037;28;21192;-82
2022/04/19 08:30:57;;;;;;;0.40;0.37;;;12.80;49.90;;;;;;5117673;28;21245;-83
2022/04/19 08:33:24;;;;;;;0.50;0.40;;;12.80;50.40;;;;;;5118305;28;20655;-82
2022/04/19 08:35:51;;;;;;;0.80;0.50;;;13.10;51.40;;;;;;5127439;27;21238;-82
2022/04/19 08:38:18;;;;;;;0.50;0.30;;;13.10;49.90;;;;;;5089336;28;20616;-83
2022/04/19 08:40:48;;;;;;;0.63;0.37;;;13.20;50.70;;;;;;5103290;28;20661;-82
2022/04/19 08:43:16;;;;;;;1.13;0.80;;;13.30;49.60;;;;;;5123197;28;20623;-82
2022/04/19 08:45:45;;;;;;;0.30;0.20;;;13.60;50.00;;;;;;5109110;28;20827;-83
2022/04/19 08:48:15;;;;;;;0.67;0.50;;;13.70;49.30;;;;;;5110297;28;20700;-81
2022/04/19 08:50:43;;;;;;;0.30;0.10;;;14.10;54.60;;;;;;5115066;27;20678;-83
2022/04/19 08:58:40;;;;;;;0.30;0.30;;;14.10;55.70;;;;;;5130358;27;20636;-82
2022/04/19 09:01:07;;;;;;;0.33;0.33;;;14.80;53.90;;;;;;5118577;27;21295;-82
2022/04/19 09:03:34;;;;;;;0.40;0.30;;;14.30;47.90;;;;;;5128743;27;20725;-82
2022/04/19 09:06:02;;;;;;;0.63;0.40;;;;;;;;;;5111392;28;20979;-82
2022/04/19 09:08:29;;;;;;;0.30;0.20;;;14.80;50.70;;;;;;5129270;27;20621;-82
2022/04/19 09:11:05;;;;;;;0.63;0.63;;;14.70;48.50;;;;;;5132281;27;20621;-83
2022/04/19 09:13:32;;;;;;;0.83;0.80;;;14.90;47.20;;;;;;5121204;27;20634;-82
2022/04/19 09:16:04;;;;;;;0.50;0.40;;;15.00;47.70;;;;;;5113144;27;20669;-82
2022/04/19 09:18:33;;;;;;;0.67;0.47;;;14.90;50.60;;;;;;5116160;27;20733;-82
2022/04/19 09:21:02;;;;;;;0.30;0.20;;;15.00;49.60;;;;;;5124330;27;21015;-83
2022/04/19 09:23:32;;;;;;;0.60;0.60;;;15.10;47.40;;;;;;5128051;27;21056;-81
2022/04/19 09:26:01;;;;;;;0.90;0.53;;;15.20;47.00;;;;;;5117710;27;20720;-82
2022/04/19 09:28:28;;;;;;;0.30;0.20;;;15.40;55.00;;;;;;5115327;27;20620;-82
2022/04/19 09:30:57;;;;;;;0.80;0.80;;;15.50;53.50;;;;;;5126286;27;20710;-81
2022/04/19 09:33:26;;;;;;;0.60;0.43;;;15.30;46.00;;;;;;5111505;28;20616;-82
2022/04/19 09:35:54;;;;;;;0.50;0.43;;;15.50;46.90;;;;;;5122969;27;20615;-83
2022/04/19 09:38:35;;;;;;;0.50;0.40;;;15.50;46.70;;;;;;5119501;27;20650;-82
2022/04/19 09:41:03;;;;;;;0.50;0.40;;;15.40;43.30;;;;;;5112565;27;20728;-82
2022/04/19 09:43:30;;;;;;;0.30;0.30;;;15.70;49.00;;;;;;5114583;27;21031;-82
2022/04/19 09:45:59;;;;;;;0.30;0.30;;;15.60;46.50;;;;;;5117892;27;20620;-82
2022/04/19 09:48:29;;;;;;;1.10;0.70;;;15.80;46.50;;;;;;5113058;27;20620;-82
2022/04/19 09:50:59;;;;;;;0.30;0.20;;;15.50;45.10;;;;;;5114376;27;20659;-83
2022/04/19 09:53:27;;;;;;;0.50;0.50;;;15.70;52.50;;;;;;5114453;27;21189;-82
2022/04/19 09:55:55;;;;;;;0.40;0.40;;;16.40;53.20;;;;;;5123350;27;20669;-81
2022/04/19 09:58:23;;;;;;;2.00;0.40;;;15.80;45.10;;;;;;5119955;27;20628;-82
2022/04/19 10:00:51;;;;;;;2.30;1.30;;;15.70;44.40;;;;;;5118573;27;20705;-83
2022/04/19 10:09:01;;;;;;;0.40;0.33;;;16.70;52.90;;;;;;5094488;27;21188;-81
2022/04/19 10:11:29;;;;;;;0.70;0.40;;;;;;;;;;5119010;27;20689;-83
2022/04/19 10:13:57;;;;;;;0.90;0.90;;;16.30;44.50;;;;;;5124162;27;20683;-83
2022/04/19 10:16:25;;;;;;;0.30;0.10;;;16.40;44.40;;;;;;5129898;27;20612;-83
2022/04/19 10:18:52;;;;;;;0.60;0.50;;;16.50;45.80;;;;;;5128655;27;21165;-82
2022/04/19 10:21:24;;;;;;;0.40;0.30;;;16.50;44.00;;;;;;5128438;27;20666;-83
2022/04/19 10:23:51;;;;;;;0.40;0.30;;;16.60;44.90;;;;;;5128484;27;20722;-82
2022/04/19 10:26:20;;;;;;;0.30;0.23;;;16.80;44.60;;;;;;5110124;27;20626;-83
2022/04/19 10:28:49;;;;;;;0.30;0.20;;;16.80;44.40;;;;;;5123449;27;21012;-82
2022/04/19 10:31:27;;;;;;;0.90;0.73;;;16.90;43.80;;;;;;5122525;27;20673;-82
2022/04/19 10:33:54;;;;;;;0.77;0.77;;;17.10;42.50;;;;;;5110972;27;20673;-82
2022/04/19 10:36:24;;;;;;;0.73;0.53;;;17.10;42.80;;;;;;5116890;27;20631;-82
2022/04/19 10:39:20;;;;;;;1.13;0.43;;;17.00;42.90;;;;;;5121263;27;21219;-81
2022/04/19 10:41:53;;;;;;;0.30;0.27;;;16.80;43.30;;;;;;5116397;27;20645;-83
2022/04/19 10:44:25;;;;;;;0.40;0.40;;;16.80;42.80;;;;;;5129812;27;20726;-83
2022/04/19 10:47:13;;;;;;;0.40;0.23;;;17.10;50.50;;;;;;5113165;27;21022;-82
2022/04/19 10:50:05;;;;;;;0.70;0.63;;;17.30;50.10;;;;;;5119287;27;20982;-81
2022/04/19 10:52:52;;;;;;;0.73;0.30;;;16.90;49.90;;;;;;5128867;27;20695;-81
2022/04/19 10:55:22;;;;;;;2.73;1.13;;;17.20;42.90;;;;;;5121836;27;20955;-83
2022/04/19 11:00:39;;;;;;;0.30;0.23;;;17.40;42.40;;;;;;5113263;27;21192;-82
2022/04/19 11:03:08;;;;;;;0.40;0.30;;;17.70;48.30;;;;;;5105391;28;21271;-82
2022/04/19 11:05:38;;;;;;;0.40;0.27;;;18.00;48.70;;;;;;5109949;27;20611;-82
2022/04/19 11:08:37;;;;;;;0.40;0.20;;;17.90;49.60;;;;;;5114682;27;20644;-81
2022/04/19 11:11:24;;;;;;;1.07;0.70;;;17.90;43.40;;;;;;5116376;27;20637;-82
2022/04/19 11:14:20;;;;;;;0.40;0.30;;;18.00;40.60;;;;;;5110135;28;20616;-82
2022/04/19 11:16:50;;;;;;;0.40;0.20;;;17.90;39.70;;;;;;5110287;28;20630;-82
2022/04/19 11:19:19;;;;;;;0.40;0.37;;;17.80;39.80;;;;;;5126493;27;20631;-82
2022/04/19 11:22:01;;;;;;;0.30;0.20;;;18.00;38.30;;;;;;5110306;27;20668;-83
2022/04/19 11:25:04;;;;;;;0.50;0.50;;;18.40;40.90;;;;;;5110252;28;20616;-82
2022/04/19 11:28:16;;;;;;;0.73;0.73;;;18.50;41.20;;;;;;5121562;27;20615;-83
2022/04/19 11:30:45;;;;;;;0.40;0.30;;;18.50;39.60;;;;;;5071438;28;20635;-81
2022/04/19 11:33:11;;;;;;;0.80;0.80;;;17.90;46.70;;;;;;5108568;27;20621;-82
2022/04/19 11:35:39;;;;;;;0.67;0.40;;;17.70;38.60;;;;;;5128626;27;21045;-83
2022/04/19 11:38:09;;;;;;;1.43;1.00;;;17.90;38.30;;;;;;5114215;27;20631;-81
2022/04/19 11:49:05;;;;;;;0.50;0.40;;;19.40;39.20;;;;;;5106687;27;20696;-82
2022/04/19 11:51:35;;;;;;;0.60;0.60;;;19.90;39.30;;;;;;5129185;27;20634;-83
2022/04/19 11:54:02;;;;;;;0.50;0.50;;;;;;;;;;5115774;27;21063;-83
2022/04/19 11:56:31;;;;;;;1.23;0.97;;;21.30;37.90;;;;;;5108445;28;20647;-84
2022/04/19 11:59:00;;;;;;;0.70;0.70;;;23.40;36.90;;;;;;5126633;27;20642;-84
2022/04/19 12:01:27;;;;;;;0.50;0.50;;;23.40;37.10;;;;;;5115050;27;21015;-84
2022/04/19 12:03:55;;;;;;;2.00;0.60;;;24.10;36.60;;;;;;5104198;28;20656;-84
2022/04/19 12:06:23;;;;;;;0.50;0.30;;;24.20;36.00;;;;;;5107994;28;20664;-83
2022/04/19 12:08:51;;;;;;;0.40;0.40;;;24.80;34.30;;;;;;5109004;28;20720;-83
2022/04/19 12:11:20;;;;;;;0.73;0.33;;;23.70;32.90;;;;;;5114890;28;20701;-82
2022/04/19 12:13:49;;;;;;;0.40;0.40;;;23.20;33.50;;;;;;5108730;28;20599;-83
2022/04/19 12:16:29;;;;;;;1.13;0.30;;;23.60;34.10;;;;;;5116395;28;20718;-84
2022/04/19 12:18:58;;;;;;;0.40;0.40;;;23.90;32.00;;;;;;5128528;28;21157;-85
2022/04/19 12:21:38;;;;;;;0.80;0.70;;;24.90;32.50;;;;;;5120108;27;20662;-84
2022/04/19 12:24:05;;;;;;;0.60;0.40;;;25.30;32.00;;;;;;5112095;28;20624;-84
2022/04/19 12:26:32;;;;;;;0.60;0.60;;;25.40;32.60;;;;;;5120863;27;20614;-84
2022/04/19 12:29:12;;;;;;;0.63;0.40;;;25.90;32.30;;;;;;5134281;27;20611;-85
2022/04/19 12:31:40;;;;;;;1.83;0.90;;;26.30;32.00;;;;;;5115935;27;21228;-84
2022/04/19 12:34:08;;;;;;;0.57;0.57;;;25.30;31.50;;;;;;5113858;28;20608;-84
2022/04/19 12:36:49;;;;;;;0.83;0.60;;;24.60;30.80;;;;;;5120040;27;20730;-83
2022/04/19 12:39:17;;;;;;;0.40;0.40;;;24.70;32.30;;;;;;5113640;28;21224;-84
2022/04/19 12:41:45;;;;;;;0.90;0.43;;;24.10;31.10;;;;;;5112050;28;21108;-84
2022/04/19 12:44:15;;;;;;;2.10;0.70;;;24.40;31.50;;;;;;5114011;27;20618;-85
2022/04/19 12:46:44;;;;;;;0.73;0.57;;;25.00;33.00;;;;;;5116329;27;20619;-85
2022/04/19 12:49:21;;;;;;;0.97;0.97;;;26.10;31.70;;;;;;5112915;28;20612;-84
2022/04/19 12:52:02;;;;;;;0.87;0.80;;;26.20;31.80;;;;;;5123603;27;21278;-85
2022/04/19 12:54:29;;;;;;;1.00;0.53;;;27.60;30.40;;;;;;5118707;27;21192;-84
2022/04/19 12:57:03;;;;;;;0.47;0.40;;;26.60;29.80;;;;;;5132546;27;20619;-83
2022/04/19 12:59:33;;;;;;;1.17;0.73;;;26.70;29.10;;;;;;5130341;27;20634;-85
2022/04/19 13:02:01;;;;;;;0.77;0.77;;;25.30;29.00;;;;;;5133514;27;20672;-84
2022/04/19 13:04:28;;;;;;;0.60;0.53;;;26.60;29.50;;;;;;5114294;27;21014;-83
2022/04/19 13:12:26;;;;;;;0.67;0.67;;;27.90;30.20;;;;;;5117991;27;20662;-85
2022/04/19 13:14:56;;;;;;;0.80;0.50;;;28.90;29.40;;;;;;5120691;27;20709;-85
2022/04/19 13:17:24;;;;;;;0.37;0.37;;;28.60;29.60;;;;;;5133507;27;20630;-83
2022/04/19 13:19:51;;;;;;;0.53;0.43;;;27.80;28.70;;;;;;5124202;27;20681;-84
2022/04/19 13:22:19;;;;;;;0.77;0.43;;;27.20;28.50;;;;;;5112762;27;20626;-84
2022/04/19 13:24:46;;;;;;;0.70;0.50;;;28.00;29.60;;;;;;5113053;28;20959;-85
2022/04/19 13:27:13;;;;;;;1.47;1.03;;;27.20;28.20;;;;;;5117545;27;21208;-84
2022/04/19 13:29:42;;;;;;;0.63;0.60;;;27.50;28.80;;;;;;5132550;27;21444;-84
2022/04/19 13:32:11;;;;;;;1.30;0.83;;;28.00;29.40;;;;;;5130882;27;20805;-84
2022/04/19 13:34:39;;;;;;;0.40;0.40;;;26.90;28.50;;;;;;5116768;27;20636;-84
2022/04/19 13:37:07;;;;;;;0.60;0.53;;;27.10;28.30;;;;;;5111479;27;20627;-83
2022/04/19 13:39:34;;;;;;;0.50;0.50;;;26.60;29.00;;;;;;5115152;27;21177;-84
2022/04/19 13:42:01;;;;;;;0.60;0.50;;;26.40;29.30;;;;;;5127398;27;21058;-83
2022/04/19 13:44:28;;;;;;;0.73;0.60;;;26.10;28.80;;;;;;5125305;27;20676;-85
2022/04/19 13:46:56;;;;;;;1.27;0.90;;;26.40;28.60;;;;;;5119136;27;20678;-83
2022/04/19 13:49:25;;;;;;;1.53;0.57;;;27.60;29.70;;;;;;5126236;27;20693;-84